Time;durP1;ratioP1;P1;durP2;ratioP2;P2;SDS_P1;SDS_P2;PMS_P1;PMS_P2;Temp;Humidity;BMP_temperature;BMP_pressure;BME280_temperature;BME280_humidity;BME280_pressure;Samples;Min_cycle;Max_cycle;Signal;HPM_P1;HPM_P2
2023/01/08 00:01:10;;;;;;;2.38;1.05;;;10.30;95.30;;;;;;4809629;29;20079;-80
2023/01/08 00:03:37;;;;;;;1.77;0.80;;;10.40;95.30;;;;;;4824483;29;20034;-80
2023/01/08 00:06:07;;;;;;;1.95;0.85;;;10.40;95.30;;;;;;4824447;29;20046;-81
2023/01/08 00:08:34;;;;;;;1.98;0.77;;;10.40;95.30;;;;;;4824820;29;20496;-80
2023/01/08 00:11:01;;;;;;;3.03;1.27;;;10.40;95.30;;;;;;4827142;29;20042;-80
2023/01/08 00:13:29;;;;;;;2.75;1.23;;;10.40;95.30;;;;;;4794910;29;20058;-81
2023/01/08 00:15:56;;;;;;;2.08;1.00;;;10.40;95.20;;;;;;4807285;29;20096;-80
2023/01/08 00:18:26;;;;;;;2.15;0.85;;;10.40;95.20;;;;;;4806890;29;20089;-80
2023/01/08 00:20:53;;;;;;;2.53;0.95;;;10.40;95.20;;;;;;4824166;29;20516;-80
2023/01/08 00:23:21;;;;;;;2.58;1.17;;;10.40;95.10;;;;;;4784511;29;20446;-80
2023/01/08 00:25:49;;;;;;;2.92;1.17;;;10.40;95.20;;;;;;4806239;29;20118;-80
2023/01/08 00:28:16;;;;;;;2.10;0.90;;;10.50;95.20;;;;;;4804627;29;20111;-80
2023/01/08 00:30:43;;;;;;;2.13;0.88;;;10.50;95.20;;;;;;4806112;29;20410;-80
2023/01/08 00:33:10;;;;;;;2.95;1.20;;;10.40;95.20;;;;;;4833069;29;20473;-80
2023/01/08 00:35:39;;;;;;;2.45;0.80;;;10.40;95.10;;;;;;4809030;29;20050;-80
2023/01/08 00:38:06;;;;;;;1.98;0.82;;;10.40;95.10;;;;;;4821032;29;20061;-80
2023/01/08 00:40:35;;;;;;;2.80;0.95;;;10.50;95.20;;;;;;4804304;29;20510;-80
2023/01/08 00:43:03;;;;;;;2.42;1.00;;;10.50;95.20;;;;;;4815445;29;20561;-80
2023/01/08 00:45:30;;;;;;;2.63;0.70;;;10.40;95.10;;;;;;4823297;29;20046;-80
2023/01/08 00:47:57;;;;;;;2.30;1.08;;;10.40;95.10;;;;;;4808848;29;20038;-81
2023/01/08 00:50:25;;;;;;;2.10;1.00;;;10.50;95.10;;;;;;4838809;29;20537;-80
2023/01/08 00:52:55;;;;;;;1.40;0.70;;;10.50;95.10;;;;;;4805609;29;20507;-81
2023/01/08 00:55:24;;;;;;;2.17;0.70;;;10.50;95.10;;;;;;4823694;29;20116;-81
2023/01/08 00:57:51;;;;;;;2.55;0.95;;;10.50;95.10;;;;;;4805496;29;20129;-80
2023/01/08 01:00:18;;;;;;;2.00;1.00;;;10.50;95.10;;;;;;4817276;29;20054;-82
2023/01/08 01:02:48;;;;;;;2.03;0.82;;;10.50;95.10;;;;;;4824741;29;20047;-81
2023/01/08 01:05:16;;;;;;;4.70;1.80;;;10.50;95.10;;;;;;4822885;29;20046;-81
2023/01/08 01:07:44;;;;;;;3.35;1.17;;;10.50;95.00;;;;;;4811167;29;20133;-82
2023/01/08 01:10:13;;;;;;;4.03;1.40;;;10.50;95.00;;;;;;4817292;29;20075;-82
2023/01/08 01:12:41;;;;;;;4.40;1.50;;;10.50;95.00;;;;;;4823368;29;20081;-81
2023/01/08 01:15:14;;;;;;;2.00;0.70;;;10.50;95.00;;;;;;4808481;29;20097;-81
2023/01/08 01:17:44;;;;;;;2.72;0.90;;;10.50;95.00;;;;;;4823681;29;20106;-81
2023/01/08 01:20:15;;;;;;;1.73;0.73;;;10.50;95.00;;;;;;4807868;29;20058;-82
2023/01/08 01:22:42;;;;;;;3.05;0.93;;;10.50;95.00;;;;;;4807703;29;20057;-82
2023/01/08 01:25:10;;;;;;;3.90;1.17;;;10.50;95.00;;;;;;4823369;29;20126;-82
2023/01/08 01:27:37;;;;;;;1.67;0.80;;;10.50;95.00;;;;;;4793368;29;20051;-82
2023/01/08 01:30:05;;;;;;;2.60;1.42;;;10.50;95.10;;;;;;4838421;29;20050;-82
2023/01/08 01:32:34;;;;;;;3.03;1.02;;;10.50;95.00;;;;;;4790069;29;20067;-82
2023/01/08 01:35:02;;;;;;;3.35;1.10;;;10.50;95.00;;;;;;4833421;29;20078;-81
2023/01/08 01:37:29;;;;;;;2.70;0.98;;;10.40;95.00;;;;;;4824289;29;20087;-81
2023/01/08 01:39:56;;;;;;;2.40;0.93;;;10.40;95.00;;;;;;4790065;29;20070;-82
2023/01/08 01:42:38;;;;;;;2.25;1.00;;;10.40;95.10;;;;;;4822569;29;20455;-81
2023/01/08 01:45:26;;;;;;;2.90;0.75;;;10.40;95.10;;;;;;4818387;29;20050;-81
2023/01/08 01:47:58;;;;;;;3.47;1.25;;;10.40;95.00;;;;;;4808022;29;20413;-81
2023/01/08 01:50:36;;;;;;;1.35;0.70;;;10.30;95.10;;;;;;4811587;29;20135;-82
2023/01/08 01:53:12;;;;;;;1.48;0.80;;;10.40;95.40;;;;;;4812978;29;20058;-82
2023/01/08 01:55:42;;;;;;;4.70;1.05;;;10.30;95.10;;;;;;4828929;29;20058;-82
2023/01/08 01:58:21;;;;;;;1.80;0.70;;;10.30;95.20;;;;;;4823043;29;20138;-82
2023/01/08 02:00:50;;;;;;;2.45;0.80;;;10.30;95.20;;;;;;4807812;29;20054;-81
2023/01/08 02:03:30;;;;;;;2.95;0.70;;;10.30;95.20;;;;;;4804836;29;20414;-81
2023/01/08 02:06:24;;;;;;;2.50;0.60;;;10.20;95.20;;;;;;4835396;29;20066;-81
2023/01/08 02:09:14;;;;;;;2.45;1.00;;;10.20;95.20;;;;;;4813690;29;20074;-81
2023/01/08 02:12:18;;;;;;;2.53;0.90;;;10.20;95.20;;;;;;4812563;29;20554;-81
2023/01/08 02:14:48;;;;;;;2.75;0.90;;;10.30;95.20;;;;;;4822844;29;20047;-82
2023/01/08 02:17:22;;;;;;;2.95;0.90;;;10.20;95.20;;;;;;4827805;29;20539;-81
2023/01/08 02:20:01;;;;;;;3.40;0.80;;;10.20;95.20;;;;;;4828644;29;20053;-82
2023/01/08 02:22:46;;;;;;;2.38;1.25;;;10.30;95.40;;;;;;4819488;29;20050;-81
2023/01/08 02:25:45;;;;;;;2.50;1.10;;;10.30;95.20;;;;;;4813664;29;20133;-81
2023/01/08 02:28:13;;;;;;;2.65;1.00;;;10.30;95.10;;;;;;4828787;29;20046;-81
2023/01/08 02:30:43;;;;;;;2.95;1.38;;;10.30;95.10;;;;;;4837405;29;20052;-81
2023/01/08 02:33:11;;;;;;;2.40;1.23;;;10.30;95.10;;;;;;4835225;29;20058;-82
2023/01/08 02:35:51;;;;;;;3.72;1.42;;;10.30;95.00;;;;;;4815685;29;20076;-81
2023/01/08 02:38:19;;;;;;;3.50;1.27;;;10.40;95.00;;;;;;4798535;29;20055;-82
2023/01/08 02:40:53;;;;;;;2.10;0.85;;;10.40;95.00;;;;;;4813300;29;20471;-82
2023/01/08 02:43:29;;;;;;;3.55;1.15;;;10.40;95.00;;;;;;4813442;29;20096;-82
2023/01/08 02:46:01;;;;;;;3.08;0.75;;;10.40;95.00;;;;;;4810775;29;20134;-81
2023/01/08 02:48:38;;;;;;;2.90;0.95;;;10.40;95.30;;;;;;4810306;29;20083;-82
2023/01/08 02:51:20;;;;;;;2.75;1.30;;;10.30;95.00;;;;;;4828342;29;20043;-82
2023/01/08 02:53:51;;;;;;;2.13;0.88;;;10.30;95.00;;;;;;4813367;29;20047;-82
2023/01/08 02:56:22;;;;;;;5.13;1.60;;;10.20;95.10;;;;;;4795405;29;20100;-82
2023/01/08 02:58:51;;;;;;;2.47;1.10;;;10.10;95.20;;;;;;4810258;29;20498;-81
2023/01/08 03:01:21;;;;;;;2.63;1.10;;;10.10;95.40;;;;;;4810010;29;20097;-81
2023/01/08 03:03:55;;;;;;;1.63;0.73;;;10.00;95.50;;;;;;4800592;29;20058;-81
2023/01/08 03:06:27;;;;;;;3.78;0.75;;;9.90;95.60;;;;;;4786553;29;20049;-80
2023/01/08 03:08:55;;;;;;;2.50;0.75;;;9.80;95.60;;;;;;4798435;29;20043;-81
2023/01/08 03:11:23;;;;;;;2.30;0.60;;;9.80;95.80;;;;;;4798268;29;20081;-81
2023/01/08 03:13:59;;;;;;;1.30;0.60;;;9.70;95.80;;;;;;4780464;29;20104;-80
2023/01/08 03:16:40;;;;;;;1.20;0.50;;;9.70;95.90;;;;;;4797337;29;20458;-81
2023/01/08 03:19:35;;;;;;;2.70;0.50;;;9.60;96.00;;;;;;4798213;29;20054;-81
2023/01/08 03:22:05;;;;;;;2.65;0.95;;;9.50;96.00;;;;;;4795063;29;20172;-80
2023/01/08 03:24:36;;;;;;;1.85;0.30;;;9.40;96.10;;;;;;4813404;29;20570;-81
2023/01/08 03:27:07;;;;;;;3.33;0.55;;;9.30;96.20;;;;;;4810562;29;20043;-81
2023/01/08 03:29:36;;;;;;;2.70;0.50;;;9.30;96.20;;;;;;4809938;29;20120;-81
2023/01/08 03:32:08;;;;;;;1.00;0.30;;;9.20;96.30;;;;;;4802504;29;20061;-81
2023/01/08 03:34:38;;;;;;;1.80;0.30;;;9.20;96.30;;;;;;4818017;29;20089;-81
2023/01/08 03:37:07;;;;;;;3.28;0.40;;;9.10;96.30;;;;;;4795045;29;20150;-81
2023/01/08 03:40:01;;;;;;;2.78;0.50;;;9.10;96.40;;;;;;4801232;29;20489;-81
2023/01/08 03:42:31;;;;;;;1.98;0.30;;;9.10;96.40;;;;;;4794938;29;20158;-81
2023/01/08 03:44:59;;;;;;;2.15;0.50;;;9.00;96.40;;;;;;4807237;29;20103;-81
2023/01/08 03:47:29;;;;;;;1.15;0.20;;;9.00;96.40;;;;;;4790811;29;20047;-81
2023/01/08 03:49:59;;;;;;;2.20;0.20;;;8.90;96.50;;;;;;4777271;29;20089;-84
2023/01/08 03:52:29;;;;;;;3.20;0.38;;;8.90;96.50;;;;;;4808267;29;20046;-83
2023/01/08 03:54:59;;;;;;;1.27;0.40;;;8.80;96.50;;;;;;4810176;29;20069;-83
2023/01/08 03:57:29;;;;;;;3.50;0.47;;;8.80;96.60;;;;;;4797581;29;20412;-83
2023/01/08 03:59:56;;;;;;;1.60;0.60;;;8.80;96.60;;;;;;4789244;29;20077;-83
2023/01/08 04:02:23;;;;;;;2.05;0.30;;;8.80;96.70;;;;;;4809837;29;20125;-83
2023/01/08 04:04:50;;;;;;;2.22;0.40;;;8.80;96.70;;;;;;4794975;29;20046;-83
2023/01/08 04:07:17;;;;;;;1.88;0.30;;;8.70;96.70;;;;;;4809391;29;20061;-83
2023/01/08 04:09:44;;;;;;;1.40;0.22;;;8.70;96.80;;;;;;4803707;29;20066;-82
2023/01/08 04:12:13;;;;;;;1.73;0.20;;;8.70;96.80;;;;;;4794584;29;20127;-83
2023/01/08 04:14:40;;;;;;;1.00;0.20;;;8.70;96.80;;;;;;4810417;29;20187;-80
2023/01/08 04:17:12;;;;;;;1.67;0.20;;;8.70;96.80;;;;;;4794523;29;20055;-81
2023/01/08 04:19:39;;;;;;;2.08;0.22;;;8.70;96.90;;;;;;4809300;29;20051;-82
2023/01/08 04:22:07;;;;;;;0.38;0.10;;;8.70;96.90;;;;;;4788095;29;20050;-82
2023/01/08 04:24:35;;;;;;;1.90;0.20;;;8.70;96.90;;;;;;4809092;29;20053;-82
2023/01/08 04:27:02;;;;;;;1.83;0.17;;;8.70;96.90;;;;;;4825598;29;20095;-81
2023/01/08 04:29:29;;;;;;;1.95;0.20;;;8.70;96.90;;;;;;4794417;29;20046;-82
2023/01/08 04:31:56;;;;;;;0.65;0.20;;;8.70;96.90;;;;;;4784056;29;20054;-82
2023/01/08 04:34:23;;;;;;;1.35;0.20;;;8.70;97.00;;;;;;4839339;29;20081;-82
2023/01/08 04:36:50;;;;;;;0.80;0.10;;;8.70;97.00;;;;;;4794229;29;20058;-82
2023/01/08 04:39:17;;;;;;;1.83;0.47;;;8.70;97.00;;;;;;4834024;29;20157;-83
2023/01/08 04:41:44;;;;;;;0.85;0.20;;;8.70;97.00;;;;;;4824147;29;20050;-82
2023/01/08 04:44:11;;;;;;;1.48;0.20;;;8.70;97.00;;;;;;4820813;29;20138;-82
2023/01/08 04:46:38;;;;;;;0.50;0.10;;;8.70;97.00;;;;;;4814126;29;20066;-82
2023/01/08 04:49:05;;;;;;;1.75;0.17;;;8.70;97.10;;;;;;4795025;29;20539;-82
2023/01/08 04:51:32;;;;;;;2.95;0.15;;;8.70;97.10;;;;;;4808925;29;20050;-82
2023/01/08 04:53:59;;;;;;;0.70;0.20;;;8.70;97.00;;;;;;4791566;29;20061;-82
2023/01/08 04:56:27;;;;;;;2.95;0.20;;;8.70;97.00;;;;;;4809047;29;20494;-82
2023/01/08 04:58:53;;;;;;;1.70;0.20;;;8.70;97.00;;;;;;4823873;29;20086;-82
2023/01/08 05:01:24;;;;;;;0.85;0.20;;;8.80;97.00;;;;;;4804977;29;20071;-82
2023/01/08 05:03:59;;;;;;;0.63;0.10;;;8.80;97.00;;;;;;4805550;29;20053;-83
2023/01/08 05:06:28;;;;;;;1.02;0.10;;;8.80;97.00;;;;;;4809028;29;20050;-82
2023/01/08 05:08:56;;;;;;;0.35;0.10;;;8.80;96.90;;;;;;4793985;29;20046;-83
2023/01/08 05:11:24;;;;;;;1.90;0.10;;;8.80;96.90;;;;;;4796314;29;20126;-82
2023/01/08 05:13:55;;;;;;;1.05;0.10;;;8.80;97.00;;;;;;4826799;29;20121;-82
2023/01/08 05:16:25;;;;;;;0.80;0.10;;;8.80;97.00;;;;;;4838758;29;20079;-82
2023/01/08 05:18:52;;;;;;;0.93;0.10;;;8.80;97.00;;;;;;4823591;29;20058;-82
2023/01/08 05:21:22;;;;;;;0.30;0.10;;;8.80;97.00;;;;;;4794385;29;20148;-82
2023/01/08 05:23:49;;;;;;;2.00;0.22;;;8.80;97.00;;;;;;4828837;29;20461;-82
2023/01/08 05:26:18;;;;;;;0.40;0.10;;;8.80;97.10;;;;;;4787255;29;20463;-83
2023/01/08 05:28:45;;;;;;;1.15;0.15;;;8.80;97.10;;;;;;4793630;29;20513;-82
2023/01/08 05:31:13;;;;;;;0.47;0.17;;;8.80;97.30;;;;;;4805410;29;20085;-82
2023/01/08 05:33:40;;;;;;;0.55;0.10;;;8.80;97.10;;;;;;4818228;29;20497;-80
2023/01/08 05:36:09;;;;;;;0.70;0.10;;;8.80;97.10;;;;;;4775716;29;20505;-82
2023/01/08 05:38:37;;;;;;;0.80;0.10;;;8.80;97.10;;;;;;4819796;29;20156;-82
2023/01/08 05:41:05;;;;;;;0.60;0.10;;;8.80;97.10;;;;;;4823374;29;20065;-82
2023/01/08 05:43:33;;;;;;;0.08;0.08;;;8.80;97.10;;;;;;4797882;29;20054;-82
2023/01/08 05:46:01;;;;;;;2.28;0.40;;;8.80;97.10;;;;;;4811553;29;20130;-82
2023/01/08 05:48:30;;;;;;;1.63;0.20;;;8.80;97.10;;;;;;4817521;29;20043;-82
2023/01/08 05:50:57;;;;;;;0.68;0.30;;;8.80;97.00;;;;;;4823963;29;20046;-82
2023/01/08 05:53:24;;;;;;;1.08;0.20;;;8.80;97.00;;;;;;4820085;29;20070;-82
2023/01/08 05:55:51;;;;;;;1.65;0.20;;;8.80;97.00;;;;;;4823035;29;20057;-82
2023/01/08 05:58:18;;;;;;;0.80;0.20;;;8.80;97.00;;;;;;4808217;29;20442;-82
2023/01/08 06:00:46;;;;;;;0.40;0.20;;;8.80;97.00;;;;;;4792720;29;20509;-81
2023/01/08 06:03:13;;;;;;;0.95;0.20;;;8.80;97.00;;;;;;4793174;29;20150;-82
2023/01/08 06:05:40;;;;;;;0.93;0.30;;;8.80;97.00;;;;;;4797138;29;20047;-82
2023/01/08 06:08:07;;;;;;;0.77;0.17;;;8.70;97.00;;;;;;4807769;29;20050;-82
2023/01/08 06:10:37;;;;;;;1.83;0.20;;;8.80;97.00;;;;;;4808013;29;20581;-82
2023/01/08 06:13:08;;;;;;;2.45;0.30;;;8.80;97.00;;;;;;4807761;29;20050;-82
2023/01/08 06:15:38;;;;;;;0.80;0.20;;;8.80;97.00;;;;;;4804146;29;20490;-82
2023/01/08 06:18:05;;;;;;;1.65;0.30;;;8.80;97.00;;;;;;4793222;29;20051;-82
2023/01/08 06:20:33;;;;;;;0.80;0.20;;;8.80;96.90;;;;;;4816057;29;20493;-82
2023/01/08 06:23:00;;;;;;;1.00;0.20;;;8.80;96.90;;;;;;4807611;29;20057;-82
2023/01/08 06:25:28;;;;;;;0.60;0.20;;;8.80;96.90;;;;;;4792536;29;20057;-82
2023/01/08 06:27:55;;;;;;;3.08;0.52;;;8.80;96.90;;;;;;4822679;29;20519;-83
2023/01/08 06:30:22;;;;;;;0.82;0.20;;;8.70;96.90;;;;;;4808634;29;20043;-83
2023/01/08 06:32:53;;;;;;;1.00;0.25;;;8.70;96.90;;;;;;4807353;29;20417;-83
2023/01/08 06:35:21;;;;;;;1.58;0.30;;;8.70;97.00;;;;;;4837576;29;20078;-82
2023/01/08 06:37:55;;;;;;;2.92;0.90;;;8.60;97.00;;;;;;4793951;29;20137;-82
2023/01/08 06:40:23;;;;;;;0.73;0.20;;;8.50;97.00;;;;;;4793710;29;20061;-83
2023/01/08 06:42:50;;;;;;;2.00;0.60;;;8.40;97.10;;;;;;4822505;29;20043;-83
2023/01/08 06:45:17;;;;;;;2.70;0.40;;;8.40;97.10;;;;;;4792637;29;20057;-83
2023/01/08 06:47:44;;;;;;;0.95;0.20;;;8.30;97.10;;;;;;4822764;29;20054;-83
2023/01/08 06:50:11;;;;;;;1.15;0.30;;;8.20;97.20;;;;;;4798380;29;20050;-84
2023/01/08 06:52:38;;;;;;;0.77;0.28;;;8.20;97.30;;;;;;4807399;29;20047;-82
2023/01/08 06:55:06;;;;;;;1.67;0.20;;;8.10;97.30;;;;;;4792528;29;20046;-83
2023/01/08 06:57:33;;;;;;;0.60;0.20;;;8.10;97.30;;;;;;4807454;29;20043;-83
2023/01/08 07:00:00;;;;;;;0.57;0.28;;;8.00;97.30;;;;;;4801463;29;20066;-82
2023/01/08 07:02:27;;;;;;;0.40;0.20;;;8.00;97.40;;;;;;4792537;29;20142;-82
2023/01/08 07:04:57;;;;;;;1.10;0.17;;;7.90;97.40;;;;;;4840586;29;20524;-82
2023/01/08 07:07:24;;;;;;;2.00;0.10;;;7.90;97.40;;;;;;4810522;29;20463;-83
2023/01/08 07:09:51;;;;;;;2.15;0.40;;;7.90;97.50;;;;;;4814102;29;20051;-82
2023/01/08 07:12:18;;;;;;;2.38;0.20;;;7.80;97.40;;;;;;4822544;29;20055;-82
2023/01/08 07:14:45;;;;;;;0.75;0.20;;;7.80;97.40;;;;;;4825197;29;20053;-81
2023/01/08 07:17:12;;;;;;;1.65;0.25;;;7.80;97.40;;;;;;4825248;29;20513;-81
2023/01/08 07:19:39;;;;;;;1.25;0.20;;;7.80;97.40;;;;;;4795443;29;20050;-82
2023/01/08 07:22:07;;;;;;;1.80;0.25;;;7.80;97.40;;;;;;4840455;29;20058;-82
2023/01/08 07:24:34;;;;;;;4.90;0.60;;;7.70;97.40;;;;;;4795643;29;20417;-82
2023/01/08 07:27:01;;;;;;;0.75;0.45;;;7.70;97.30;;;;;;4810685;29;20519;-83
2023/01/08 07:29:28;;;;;;;1.05;0.20;;;7.70;97.30;;;;;;4810194;29;20058;-82
2023/01/08 07:31:55;;;;;;;1.05;0.30;;;7.70;97.30;;;;;;4783162;29;20058;-81
2023/01/08 07:34:25;;;;;;;1.15;0.20;;;7.70;97.30;;;;;;4800530;29;20054;-82
2023/01/08 07:36:52;;;;;;;1.70;0.20;;;7.70;97.20;;;;;;4793939;29;20097;-82
2023/01/08 07:39:19;;;;;;;0.73;0.20;;;7.70;97.30;;;;;;4799531;29;20107;-82
2023/01/08 07:41:46;;;;;;;2.28;0.30;;;7.70;97.20;;;;;;4830140;29;20115;-82
2023/01/08 07:44:13;;;;;;;1.35;0.40;;;7.70;97.20;;;;;;4795075;29;20137;-83
2023/01/08 07:46:40;;;;;;;1.75;0.20;;;7.70;97.20;;;;;;4803451;29;20050;-82
2023/01/08 07:49:08;;;;;;;1.77;0.52;;;7.60;97.10;;;;;;4840394;29;20055;-81
2023/01/08 07:51:35;;;;;;;1.95;0.35;;;7.60;97.10;;;;;;4795031;29;20053;-82
2023/01/08 07:54:02;;;;;;;2.08;0.43;;;7.60;97.10;;;;;;4809817;29;20570;-81
2023/01/08 07:56:29;;;;;;;2.55;0.30;;;7.60;97.20;;;;;;4794783;29;20058;-83
2023/01/08 07:58:56;;;;;;;3.60;0.35;;;7.60;97.20;;;;;;4824741;29;20055;-83
2023/01/08 08:01:24;;;;;;;1.88;0.45;;;7.60;97.40;;;;;;4825128;29;20144;-82
2023/01/08 08:03:52;;;;;;;1.73;0.20;;;7.60;97.20;;;;;;4809938;29;20043;-81
2023/01/08 08:06:22;;;;;;;0.85;0.13;;;7.50;97.20;;;;;;4821402;29;20575;-81
2023/01/08 08:08:49;;;;;;;0.63;0.20;;;7.50;97.20;;;;;;4817996;29;20106;-81
2023/01/08 08:11:16;;;;;;;1.25;0.10;;;7.50;97.10;;;;;;4794804;29;20054;-81
2023/01/08 08:13:43;;;;;;;3.85;0.20;;;7.50;97.10;;;;;;4809234;29;20114;-83
2023/01/08 08:16:11;;;;;;;1.55;0.30;;;7.50;97.00;;;;;;4809546;29;20117;-83
2023/01/08 08:18:39;;;;;;;1.33;0.20;;;7.50;97.10;;;;;;4809597;29;20065;-82
2023/01/08 08:21:06;;;;;;;3.28;0.95;;;7.50;97.10;;;;;;4798234;29;20067;-86
2023/01/08 08:23:33;;;;;;;0.85;0.15;;;7.50;97.00;;;;;;4809623;29;20053;-83
2023/01/08 08:26:03;;;;;;;1.55;0.20;;;7.50;97.00;;;;;;4803822;29;20414;-82
2023/01/08 08:28:30;;;;;;;3.80;0.40;;;7.50;97.00;;;;;;4824147;29;20050;-82
2023/01/08 08:30:57;;;;;;;7.13;0.60;;;7.50;97.00;;;;;;4821575;29;20046;-86
2023/01/08 08:33:25;;;;;;;4.25;0.73;;;7.50;97.10;;;;;;4835502;29;20050;-85
2023/01/08 08:35:52;;;;;;;2.58;0.30;;;7.50;96.70;;;;;;4834915;29;20054;-84
2023/01/08 08:38:19;;;;;;;1.98;0.40;;;7.50;96.60;;;;;;4821398;29;20390;-86
2023/01/08 08:40:49;;;;;;;5.60;1.00;;;7.50;96.50;;;;;;4797822;29;20089;-85
2023/01/08 08:43:17;;;;;;;3.08;0.50;;;7.50;96.50;;;;;;4809367;29;20061;-85
2023/01/08 08:45:44;;;;;;;3.55;0.50;;;7.50;96.40;;;;;;4819443;29;20058;-85
2023/01/08 08:48:11;;;;;;;2.28;0.30;;;7.50;96.40;;;;;;4796541;29;20412;-85
2023/01/08 08:50:38;;;;;;;2.80;0.43;;;7.50;96.30;;;;;;4841089;29;20115;-84
2023/01/08 08:53:05;;;;;;;3.00;0.28;;;7.50;96.30;;;;;;4805004;29;20050;-84
2023/01/08 08:55:33;;;;;;;4.93;0.60;;;7.50;96.30;;;;;;4805986;29;20072;-84
2023/01/08 08:58:06;;;;;;;4.57;0.50;;;7.50;96.30;;;;;;4809499;29;20050;-84
2023/01/08 09:00:34;;;;;;;2.22;0.20;;;7.60;96.30;;;;;;4813984;29;20509;-84
2023/01/08 09:03:01;;;;;;;6.28;0.85;;;7.60;96.20;;;;;;4809532;29;20050;-84
2023/01/08 09:05:29;;;;;;;3.75;0.55;;;7.70;96.20;;;;;;4820960;29;20105;-84
2023/01/08 09:07:56;;;;;;;4.18;0.40;;;7.70;96.10;;;;;;4806205;29;20055;-85
2023/01/08 09:10:23;;;;;;;2.35;0.40;;;7.70;96.00;;;;;;4806883;29;20562;-85
2023/01/08 09:12:52;;;;;;;3.88;0.65;;;7.80;95.90;;;;;;4839365;29;20081;-87
2023/01/08 09:15:21;;;;;;;3.28;0.47;;;7.80;95.80;;;;;;4810467;29;20050;-83
2023/01/08 09:17:55;;;;;;;1.90;0.40;;;7.80;95.80;;;;;;4824721;29;20050;-85
2023/01/08 09:20:25;;;;;;;2.60;0.57;;;7.80;95.80;;;;;;4814652;29;20060;-86
2023/01/08 09:23:00;;;;;;;1.48;0.30;;;7.90;95.80;;;;;;4813397;29;20501;-84
2023/01/08 09:25:27;;;;;;;5.47;0.75;;;7.90;95.70;;;;;;4808382;29;20042;-84
2023/01/08 09:27:59;;;;;;;6.03;1.10;;;7.90;95.70;;;;;;4809101;29;20046;-85
2023/01/08 09:30:27;;;;;;;;;;;7.90;95.70;;;;;;4824413;29;20058;-85
2023/01/08 09:32:59;;;;;;;3.40;0.43;;;7.90;95.80;;;;;;4808825;29;19935;-85
2023/01/08 09:35:30;;;;;;;2.70;0.32;;;7.90;95.70;;;;;;4808815;29;20057;-85
2023/01/08 09:37:57;;;;;;;3.22;0.32;;;7.90;95.70;;;;;;4808621;29;20074;-85
2023/01/08 09:40:39;;;;;;;2.58;0.73;;;7.90;95.70;;;;;;4808672;29;20501;-85
2023/01/08 09:43:13;;;;;;;3.20;0.50;;;8.00;95.70;;;;;;4805137;29;20528;-84
2023/01/08 09:45:43;;;;;;;2.35;0.50;;;8.00;95.70;;;;;;4819096;29;20055;-84
2023/01/08 09:48:16;;;;;;;2.85;0.45;;;8.10;95.60;;;;;;4813738;29;20051;-84
2023/01/08 09:50:43;;;;;;;1.42;0.40;;;8.00;95.60;;;;;;4808174;29;20517;-84
2023/01/08 09:53:16;;;;;;;2.08;0.40;;;8.10;95.60;;;;;;4814292;29;20574;-80
2023/01/08 09:55:47;;;;;;;3.35;0.30;;;8.00;95.60;;;;;;4822701;29;20047;-79
2023/01/08 09:58:39;;;;;;;5.35;0.60;;;8.00;95.70;;;;;;4822975;29;20053;-79
2023/01/08 10:01:12;;;;;;;5.60;0.47;;;8.00;95.70;;;;;;4824001;29;20114;-83
2023/01/08 10:03:44;;;;;;;2.38;0.50;;;8.00;95.70;;;;;;4835697;29;20146;-81
2023/01/08 10:06:13;;;;;;;5.60;0.50;;;8.00;95.70;;;;;;4824112;29;20059;-83
2023/01/08 10:08:41;;;;;;;3.70;0.40;;;8.00;95.80;;;;;;4807020;29;20053;-83
2023/01/08 10:11:14;;;;;;;4.72;0.40;;;7.90;95.70;;;;;;4808416;29;20057;-84
2023/01/08 10:13:47;;;;;;;3.42;0.65;;;8.00;95.70;;;;;;4790205;29;20418;-81
2023/01/08 10:16:27;;;;;;;3.60;0.52;;;8.00;95.80;;;;;;4820812;29;20061;-80
2023/01/08 10:18:54;;;;;;;1.92;0.40;;;8.00;95.80;;;;;;4829861;29;20058;-80
2023/01/08 10:21:29;;;;;;;1.95;0.40;;;7.90;95.90;;;;;;4804395;29;20425;-80
2023/01/08 10:23:57;;;;;;;4.82;0.70;;;8.00;95.90;;;;;;4811276;29;20062;-81
2023/01/08 10:26:36;;;;;;;2.47;0.35;;;8.00;95.90;;;;;;4816797;29;20047;-80
2023/01/08 10:29:12;;;;;;;3.30;0.40;;;8.10;95.90;;;;;;4807452;29;20470;-80
2023/01/08 10:31:58;;;;;;;2.97;0.40;;;8.00;95.90;;;;;;4822661;29;20065;-80
2023/01/08 10:34:27;;;;;;;1.77;0.40;;;8.10;95.90;;;;;;4831021;29;20713;-80
2023/01/08 10:36:54;;;;;;;2.50;0.40;;;8.00;95.90;;;;;;4824594;29;20427;-80
2023/01/08 10:39:27;;;;;;;1.95;0.50;;;8.00;95.90;;;;;;4826140;29;20130;-80
2023/01/08 10:42:01;;;;;;;1.70;0.32;;;8.10;95.90;;;;;;4837749;29;20091;-80
2023/01/08 10:44:31;;;;;;;1.65;0.50;;;8.10;95.90;;;;;;4815622;29;20047;-81
2023/01/08 10:46:59;;;;;;;3.80;0.75;;;8.10;95.90;;;;;;4825919;29;20046;-79
2023/01/08 10:49:38;;;;;;;2.90;0.40;;;8.20;95.90;;;;;;4825745;29;20108;-81
2023/01/08 10:52:19;;;;;;;3.38;0.60;;;8.20;95.90;;;;;;4825852;29;20042;-80
2023/01/08 10:54:46;;;;;;;2.13;0.30;;;8.20;96.20;;;;;;4807822;29;20055;-80
2023/01/08 10:57:27;;;;;;;5.00;0.50;;;8.20;95.90;;;;;;4806826;29;20058;-80
2023/01/08 10:59:55;;;;;;;2.73;0.40;;;8.30;95.80;;;;;;4807723;29;20058;-80
2023/01/08 11:02:31;;;;;;;3.30;0.40;;;8.30;95.80;;;;;;4837134;29;20075;-80
2023/01/08 11:04:59;;;;;;;4.38;0.50;;;8.40;95.80;;;;;;4826732;29;20078;-79
2023/01/08 11:07:27;;;;;;;2.78;0.40;;;8.40;95.80;;;;;;4810553;29;20098;-80
2023/01/08 11:09:54;;;;;;;2.72;0.65;;;8.40;95.80;;;;;;4822267;29;20050;-80
2023/01/08 11:12:38;;;;;;;0.98;0.30;;;8.50;95.80;;;;;;4820115;29;20095;-80
2023/01/08 11:15:35;;;;;;;6.00;0.68;;;8.50;95.70;;;;;;4810187;29;20413;-80
2023/01/08 11:18:12;;;;;;;2.97;0.75;;;8.50;95.70;;;;;;4825236;29;20046;-80
2023/01/08 11:20:40;;;;;;;3.95;0.77;;;8.50;95.70;;;;;;4810056;29;20181;-80
2023/01/08 11:23:11;;;;;;;5.22;0.65;;;8.50;95.70;;;;;;4810259;29;20065;-80
2023/01/08 11:25:39;;;;;;;5.03;0.68;;;8.50;95.70;;;;;;4810545;29;20054;-81
2023/01/08 11:28:13;;;;;;;2.22;0.45;;;8.50;95.70;;;;;;4810857;29;20505;-85
2023/01/08 11:30:46;;;;;;;3.22;0.57;;;8.40;95.80;;;;;;4811094;29;20054;-84
2023/01/08 11:33:20;;;;;;;1.48;0.40;;;8.40;95.80;;;;;;4840825;29;20060;-85
2023/01/08 11:35:59;;;;;;;1.63;0.38;;;8.40;95.80;;;;;;4810697;29;20050;-84
2023/01/08 11:38:27;;;;;;;2.97;0.90;;;8.40;95.80;;;;;;4825779;29;20054;-84
2023/01/08 11:41:33;;;;;;;2.05;0.32;;;8.40;95.80;;;;;;4795993;29;20521;-84
2023/01/08 11:44:12;;;;;;;2.20;0.45;;;8.50;95.80;;;;;;4806642;29;20561;-84
2023/01/08 11:47:04;;;;;;;2.28;0.50;;;8.50;95.90;;;;;;4807580;29;20051;-83
2023/01/08 11:49:47;;;;;;;1.30;0.50;;;8.60;95.80;;;;;;4806799;29;20051;-84
2023/01/08 11:52:40;;;;;;;2.25;0.43;;;8.70;95.60;;;;;;4824144;29;20061;-83
2023/01/08 11:55:36;;;;;;;;;;;8.70;95.50;;;;;;4822614;29;20054;-84
2023/01/08 11:58:15;;;;;;;1.10;0.40;;;8.70;95.50;;;;;;4777646;29;19925;-82
2023/01/08 12:00:56;;;;;;;3.33;1.50;;;8.70;95.60;;;;;;4824779;29;20111;-83
2023/01/08 12:03:38;;;;;;;1.15;0.40;;;8.70;95.60;;;;;;4818594;29;20090;-82
2023/01/08 12:06:43;;;;;;;1.92;0.60;;;8.70;95.60;;;;;;4824700;29;20046;-83
2023/01/08 12:09:22;;;;;;;2.30;0.50;;;8.70;95.60;;;;;;4824853;29;20050;-84
2023/01/08 12:11:53;;;;;;;1.00;0.30;;;8.70;95.60;;;;;;4809974;29;20061;-84
2023/01/08 12:14:41;;;;;;;3.42;0.40;;;8.80;95.50;;;;;;4824393;29;20097;-81
2023/01/08 12:17:24;;;;;;;2.67;0.40;;;8.80;95.40;;;;;;4824283;29;20150;-81
2023/01/08 12:20:11;;;;;;;0.77;0.30;;;8.90;95.40;;;;;;4824398;29;20050;-82
2023/01/08 12:22:50;;;;;;;2.22;0.30;;;8.90;95.30;;;;;;4814662;29;20510;-85
2023/01/08 12:25:27;;;;;;;2.03;0.98;;;9.00;95.30;;;;;;4824263;29;20046;-84
2023/01/08 12:28:06;;;;;;;1.90;0.30;;;9.00;95.30;;;;;;4824626;29;20043;-85
2023/01/08 12:30:55;;;;;;;1.48;0.20;;;9.00;95.10;;;;;;4809561;29;20053;-84
2023/01/08 12:33:38;;;;;;;0.50;0.20;;;9.10;95.10;;;;;;4809012;29;20145;-83
2023/01/08 12:36:13;;;;;;;0.82;0.28;;;9.10;95.00;;;;;;4826995;29;20059;-85
2023/01/08 12:38:43;;;;;;;0.80;0.20;;;9.20;95.00;;;;;;4815698;29;20116;-85
2023/01/08 12:41:17;;;;;;;1.85;0.13;;;9.20;94.90;;;;;;4813503;29;20494;-83
2023/01/08 12:43:49;;;;;;;0.95;0.20;;;9.30;94.90;;;;;;4809028;29;20050;-80
2023/01/08 12:46:18;;;;;;;1.63;0.20;;;9.30;94.80;;;;;;4820682;29;20053;-80
2023/01/08 12:48:48;;;;;;;1.95;0.30;;;9.30;94.70;;;;;;4811576;29;20422;-79
2023/01/08 12:51:51;;;;;;;0.30;0.20;;;9.40;94.60;;;;;;4809314;29;20058;-80
2023/01/08 12:54:32;;;;;;;0.60;0.20;;;9.50;94.40;;;;;;4837457;29;20046;-79
2023/01/08 12:57:33;;;;;;;0.68;0.20;;;9.70;94.40;;;;;;4829909;29;20504;-80
2023/01/08 13:00:08;;;;;;;0.60;0.20;;;9.70;93.90;;;;;;4808388;29;20086;-81
2023/01/08 13:03:00;;;;;;;0.93;0.30;;;9.80;93.90;;;;;;4823785;29;20056;-82
2023/01/08 13:05:36;;;;;;;0.22;0.13;;;9.90;93.80;;;;;;4812657;29;20054;-83
2023/01/08 13:08:23;;;;;;;0.70;0.30;;;10.00;93.80;;;;;;4823031;29;20058;-86
2023/01/08 13:10:55;;;;;;;1.33;0.40;;;10.10;93.60;;;;;;4809193;29;20054;-85
2023/01/08 13:13:35;;;;;;;0.70;0.20;;;10.10;93.60;;;;;;4824320;29;20121;-86
2023/01/08 13:16:13;;;;;;;0.77;0.40;;;10.10;93.50;;;;;;4806527;29;20157;-89
2023/01/08 13:18:49;;;;;;;1.00;0.30;;;10.10;93.40;;;;;;4825980;29;20054;-89